^^

Live Weather Display



Station Historical Data
 
Daily Summary for July 25, 2017 Units:  English    Metric   Both
« Previous Day
Next Day »
Daily Weekly Monthly Yearly Custom
  Current: High: Low: Average:
Temperature: 74.8 °F 76.8 °F 64.0 °F 71 °F
Dew Point: 62.7 °F 71.4 °F 59.6 °F 63.4 °F
Humidity: 66 % 94 % 65 % 78 %
Wind Speed: 0.0 mph 3.1 mph 0.0 mph 0 mph
Wind Gust: 0.0 mph 4.5 mph - -
Wind:Calm - - NW
Pressure: 30.10 in 30.10 in 29.88 in -
Precipitation: 0.00 in      
Historical Graphs
 
 
Tabular Data for July 25, 2017
Time Temperature Dew Point Pressure Wind Wind Speed Wind Gust Humidity Rainfall Rate (Hourly)
00:04 73.2 °F 71.4 °F 29.88 in Calm     94 % 0.00 in
00:09 73.0 °F 71.2 °F 29.89 in Calm     94 % 0.00 in
00:14 73.0 °F 71.2 °F 29.89 in Calm     94 % 0.00 in
00:19 72.7 °F 70.8 °F 29.89 in Calm     94 % 0.00 in
00:24 72.5 °F 70.7 °F 29.89 in Calm     94 % 0.00 in
00:29 72.7 °F 70.8 °F 29.89 in Calm     94 % 0.00 in
00:34 72.7 °F 70.8 °F 29.90 in Calm     94 % 0.00 in
00:39 72.7 °F 70.8 °F 29.90 in Calm     94 % 0.00 in
00:44 72.7 °F 70.8 °F 29.90 in Calm     94 % 0.00 in
00:49 72.5 °F 70.7 °F 29.90 in Calm     94 % 0.00 in
00:54 72.3 °F 70.5 °F 29.90 in Calm     94 % 0.00 in
00:59 72.3 °F 70.5 °F 29.91 in Calm     94 % 0.00 in
01:04 72.7 °F 70.5 °F 29.90 in Calm     93 % 0.00 in
01:09 73.0 °F 70.6 °F 29.91 in Calm     92 % 0.00 in
01:14 72.9 °F 70.4 °F 29.91 in Calm     92 % 0.00 in
01:19 72.5 °F 70.1 °F 29.92 in Calm     92 % 0.00 in
01:24 72.3 °F 70.2 °F 29.92 in Calm     93 % 0.00 in
01:29 72.0 °F 69.8 °F 29.92 in Calm     93 % 0.00 in
01:34 71.8 °F 69.6 °F 29.92 in Calm     93 % 0.00 in
01:39 71.4 °F 69.3 °F 29.93 in Calm     93 % 0.00 in
01:44 71.4 °F 69.3 °F 29.93 in Calm     93 % 0.00 in
01:49 71.8 °F 69.3 °F 29.92 in Calm     92 % 0.00 in
01:54 72.1 °F 69.4 °F 29.92 in Calm     91 % 0.00 in
01:59 72.1 °F 69.1 °F 29.92 in Calm     90 % 0.00 in
02:04 72.3 °F 68.6 °F 29.92 in Calm     88 % 0.00 in
02:09 72.3 °F 68.6 °F 29.92 in Calm     88 % 0.00 in
02:14 72.3 °F 67.9 °F 29.93 in Calm     86 % 0.00 in
02:19 72.3 °F 67.6 °F 29.93 in Calm     85 % 0.00 in
02:24 72.3 °F 67.2 °F 29.93 in Calm     84 % 0.00 in
02:29 72.1 °F 67.0 °F 29.94 in Calm     84 % 0.00 in
02:34 72.1 °F 67.0 °F 29.94 in Calm     84 % 0.00 in
02:39 72.0 °F 66.5 °F 29.94 in Calm     83 % 0.00 in
02:44 71.8 °F 66.3 °F 29.94 in Calm     83 % 0.00 in
02:49 71.6 °F 65.8 °F 29.94 in Calm     82 % 0.00 in
02:54 71.4 °F 65.3 °F 29.95 in Calm     81 % 0.00 in
02:59 71.4 °F 64.9 °F 29.95 in Calm     80 % 0.00 in
03:04 71.2 °F 64.4 °F 29.95 in Calm     79 % 0.00 in
03:09 71.2 °F 64.4 °F 29.95 in Calm     79 % 0.00 in
03:14 71.2 °F 64.0 °F 29.95 in Calm     78 % 0.00 in
03:19 70.9 °F 63.6 °F 29.95 in Calm     78 % 0.00 in
03:24 70.9 °F 63.6 °F 29.95 in Calm     78 % 0.00 in
03:29 70.5 °F 63.8 °F 29.96 in Calm     78 % 0.00 in
03:34 70.5 °F 63.3 °F 29.96 in Calm     78 % 0.00 in
03:39 70.3 °F 63.1 °F 29.95 in Calm     78 % 0.00 in
03:44 70.3 °F 62.7 °F 29.96 in Calm     77 % 0.00 in
03:49 70.2 °F 62.9 °F 29.96 in Calm     78 % 0.00 in
03:54 70.0 °F 62.7 °F 29.96 in Calm     78 % 0.00 in
03:59 69.8 °F 62.6 °F 29.96 in Calm     78 % 0.00 in
04:04 69.6 °F 62.4 °F 29.97 in Calm     78 % 0.00 in
04:09 69.4 °F 62.2 °F 29.97 in Calm     78 % 0.00 in
04:14 69.4 °F 63.3 °F 29.97 in Calm     81 % 0.00 in
04:19 68.9 °F 63.2 °F 29.97 in Calm     82 % 0.00 in
04:24 68.5 °F 62.8 °F 29.97 in Calm     82 % 0.00 in
04:29 68.5 °F 62.5 °F 29.98 in Calm     81 % 0.00 in
04:34 68.5 °F 62.2 °F 29.98 in Calm     80 % 0.00 in
04:35 68.5 °F 62.2 °F 29.98 in Calm     80 % 0.00 in
04:40 68.5 °F 62.5 °F 29.98 in Calm     81 % 0.00 in
04:45 68.2 °F 61.9 °F 29.98 in Calm     80 % 0.00 in
04:50 68.4 °F 61.6 °F 29.98 in Calm     79 % 0.00 in
04:55 68.4 °F 61.6 °F 29.98 in Calm     79 % 0.00 in
05:00 68.0 °F 62.0 °F 29.98 in Calm     81 % 0.00 in
05:05 67.8 °F 62.5 °F 29.99 in Calm     83 % 0.00 in
05:10 67.6 °F 62.3 °F 29.99 in Calm     83 % 0.00 in
05:15 67.3 °F 61.3 °F 29.99 in Calm     81 % 0.00 in
05:20 67.3 °F 61.3 °F 29.99 in Calm     81 % 0.00 in
05:25 67.3 °F 62.0 °F 30.00 in Calm     83 % 0.00 in
05:30 67.1 °F 62.1 °F 29.99 in Calm     84 % 0.00 in
05:35 66.9 °F 61.3 °F 30.00 in Calm     82 % 0.00 in
05:40 66.9 °F 61.3 °F 30.00 in Calm     82 % 0.00 in
05:45 66.9 °F 61.6 °F 30.00 in Calm     83 % 0.00 in
05:50 66.7 °F 61.7 °F 30.00 in Calm     84 % 0.00 in
05:55 66.4 °F 61.7 °F 30.00 in Calm     85 % 0.00 in
05:56 66.4 °F 61.7 °F 30.00 in Calm     85 % 0.00 in
06:01 65.7 °F 60.7 °F 30.00 in Calm     84 % 0.00 in
06:06 65.5 °F 60.8 °F 30.00 in Calm     85 % 0.00 in
06:11 65.1 °F 60.5 °F 30.01 in Calm     85 % 0.00 in
06:16 64.8 °F 59.8 °F 30.01 in Calm     84 % 0.00 in
06:21 64.6 °F 60.0 °F 30.01 in Calm     85 % 0.00 in
06:26 64.2 °F 59.6 °F 30.01 in Calm     85 % 0.00 in
06:31 64.2 °F 60.0 °F 30.01 in Calm     86 % 0.00 in
06:36 64.0 °F 59.8 °F 30.01 in Calm     86 % 0.00 in
06:41 64.0 °F 59.8 °F 30.01 in Calm     86 % 0.00 in
06:46 64.0 °F 59.8 °F 30.02 in Calm     86 % 0.00 in
06:51 64.0 °F 60.1 °F 30.02 in Calm     87 % 0.00 in
06:56 64.0 °F 60.1 °F 30.02 in Calm     87 % 0.00 in
07:01 64.0 °F 60.1 °F 30.02 in Calm     87 % 0.00 in
07:06 64.0 °F 60.1 °F 30.02 in Calm     87 % 0.00 in
07:11 64.0 °F 60.1 °F 30.02 in Calm     87 % 0.00 in
07:16 64.2 °F 60.3 °F 30.02 in Calm     87 % 0.00 in
07:21 64.2 °F 60.3 °F 30.02 in Calm     87 % 0.00 in
07:26 64.2 °F 60.7 °F 30.03 in Calm     88 % 0.00 in
07:31 64.2 °F 60.7 °F 30.03 in Calm     88 % 0.00 in
07:36 64.2 °F 60.7 °F 30.03 in Calm     88 % 0.00 in
07:41 64.2 °F 60.7 °F 30.03 in Calm     88 % 0.00 in
07:46 64.2 °F 60.3 °F 30.03 in Calm     87 % 0.00 in
07:51 64.6 °F 60.7 °F 30.03 in Calm     87 % 0.00 in
07:56 64.8 °F 60.8 °F 30.03 in Calm     87 % 0.00 in
08:01 65.1 °F 60.8 °F 30.03 in Calm     86 % 0.00 in
08:06 65.5 °F 60.8 °F 30.03 in Calm     85 % 0.00 in
08:11 66.0 °F 61.0 °F 30.03 in Calm     84 % 0.00 in
08:16 66.4 °F 61.1 °F 30.03 in Calm     83 % 0.00 in
08:21 66.6 °F 60.9 °F 30.03 in Calm     82 % 0.00 in
08:26 66.7 °F 60.8 °F 30.03 in Calm     81 % 0.00 in
08:31 66.9 °F 60.6 °F 30.03 in Calm   1.6 mph 80 % 0.00 in
08:36 67.1 °F 60.4 °F 30.04 in Calm   1.6 mph 79 % 0.00 in
08:41 67.3 °F 60.2 °F 30.04 in Calm   3.4 mph 78 % 0.00 in
08:46 67.6 °F 60.6 °F 30.04 in Calm   3.4 mph 78 % 0.00 in
08:51 67.6 °F 60.2 °F 30.04 in Calm   4.0 mph 77 % 0.00 in
08:56 67.6 °F 60.4 °F 30.05 in Calm   4.0 mph 77 % 0.00 in
09:01 67.8 °F 60.0 °F 30.05 in Calm     76 % 0.00 in
09:06 67.8 °F 60.0 °F 30.05 in Calm   4.5 mph 76 % 0.00 in
09:11 68.0 °F 60.2 °F 30.05 in Calm   4.5 mph 76 % 0.00 in
09:16 68.2 °F 60.4 °F 30.05 in Calm   1.6 mph 76 % 0.00 in
09:22 68.4 °F 60.1 °F 30.04 in Calm   2.0 mph 75 % 0.00 in
09:27 68.4 °F 60.1 °F 30.04 in Calm   2.0 mph 75 % 0.00 in
09:32 68.5 °F 60.3 °F 30.05 in Calm     75 % 0.00 in
09:37 68.7 °F 60.5 °F 30.04 in Calm   1.6 mph 75 % 0.00 in
09:42 68.7 °F 60.5 °F 30.04 in Calm   2.0 mph 75 % 0.00 in
09:47 68.9 °F 60.2 °F 30.04 in Calm   3.6 mph 74 % 0.00 in
09:52 69.1 °F 60.4 °F 30.04 in Calm   3.6 mph 74 % 0.00 in
09:57 69.3 °F 60.6 °F 30.04 in Calm   2.5 mph 74 % 0.00 in
10:02 69.4 °F 60.7 °F 30.04 in Calm   2.5 mph 74 % 0.00 in
10:07 69.6 °F 60.9 °F 30.05 in Calm     74 % 0.00 in
10:12 69.8 °F 60.7 °F 30.05 in Calm     73 % 0.00 in
10:17 70.0 °F 60.5 °F 30.06 in Calm     72 % 0.00 in
10:22 70.3 °F 60.5 °F 30.05 in Calm     71 % 0.00 in
10:27 70.3 °F 60.8 °F 30.06 in Calm     72 % 0.00 in
10:32 70.5 °F 61.0 °F 30.06 in Calm     72 % 0.00 in
10:37 70.7 °F 61.2 °F 30.06 in Calm   2.0 mph 72 % 0.00 in
10:42 70.7 °F 61.2 °F 30.06 in Calm   2.0 mph 72 % 0.00 in
10:47 70.9 °F 61.0 °F 30.06 in Calm   2.0 mph 71 % 0.00 in
10:52 71.2 °F 61.4 °F 30.06 in Calm     71 % 0.00 in
10:57 71.2 °F 61.7 °F 30.06 in Calm     72 % 0.00 in
11:02 71.4 °F 61.9 °F 30.06 in Calm     72 % 0.00 in
11:07 71.8 °F 61.9 °F 30.06 in Calm     71 % 0.00 in
11:12 72.0 °F 62.1 °F 30.06 in Calm     71 % 0.00 in
11:17 72.3 °F 62.4 °F 30.07 in Calm     71 % 0.00 in
11:22 72.5 °F 62.2 °F 30.06 in Calm     70 % 0.00 in
11:27 72.7 °F 62.4 °F 30.07 in Calm     70 % 0.00 in
11:32 72.7 °F 62.4 °F 30.07 in Calm     70 % 0.00 in
11:37 72.7 °F 62.4 °F 30.07 in NNW 1.6 mph 2.5 mph 70 % 0.00 in
11:42 72.9 °F 62.6 °F 30.07 in Calm   2.5 mph 70 % 0.00 in
11:47 73.0 °F 62.8 °F 30.08 in Calm     70 % 0.00 in
11:52 72.9 °F 63.0 °F 30.08 in Calm   2.5 mph 71 % 0.00 in
11:57 72.7 °F 62.4 °F 30.08 in Calm   2.5 mph 70 % 0.00 in
12:02 72.5 °F 62.2 °F 30.08 in Calm     70 % 0.00 in
12:07 72.7 °F 63.2 °F 30.08 in Calm     72 % 0.00 in
12:12 72.7 °F 62.8 °F 30.08 in Calm     71 % 0.00 in
12:17 72.7 °F 62.8 °F 30.08 in Calm     71 % 0.00 in
12:22 72.7 °F 62.8 °F 30.08 in Calm   3.4 mph 71 % 0.00 in
12:27 72.5 °F 62.6 °F 30.08 in Calm   3.4 mph 71 % 0.00 in
12:32 72.3 °F 62.4 °F 30.09 in Calm     71 % 0.00 in
12:37 72.3 °F 62.8 °F 30.08 in Calm     72 % 0.00 in
12:42 72.3 °F 62.4 °F 30.08 in Calm     71 % 0.00 in
12:47 72.3 °F 62.1 °F 30.09 in Calm     70 % 0.00 in
12:52 72.5 °F 62.6 °F 30.09 in Calm     71 % 0.00 in
12:57 72.5 °F 62.6 °F 30.09 in Calm     71 % 0.00 in
13:02 72.5 °F 63.2 °F 30.09 in Calm     72 % 0.00 in
13:07 72.7 °F 62.8 °F 30.09 in Calm     71 % 0.00 in
13:12 72.5 °F 62.6 °F 30.09 in Calm     71 % 0.00 in
13:17 72.5 °F 62.2 °F 30.09 in Calm     70 % 0.00 in
13:22 72.7 °F 63.2 °F 30.09 in Calm     72 % 0.00 in
13:27 72.7 °F 63.2 °F 30.09 in Calm     72 % 0.00 in
13:32 72.7 °F 63.2 °F 30.09 in Calm     72 % 0.00 in
13:37 72.7 °F 63.2 °F 30.09 in Calm     71 % 0.00 in
13:42 72.7 °F 63.2 °F 30.09 in Calm     72 % 0.00 in
13:47 72.7 °F 63.6 °F 30.09 in Calm     73 % 0.00 in
13:52 72.7 °F 63.2 °F 30.09 in Calm     72 % 0.00 in
13:57 73.0 °F 63.9 °F 30.09 in Calm     73 % 0.00 in
14:02 72.9 °F 63.7 °F 30.09 in Calm     73 % 0.00 in
14:07 72.9 °F 63.7 °F 30.09 in Calm     73 % 0.00 in
14:12 72.9 °F 63.7 °F 30.08 in Calm     73 % 0.00 in
14:17 73.0 °F 63.5 °F 30.09 in Calm   0.7 mph 72 % 0.00 in
14:22 73.2 °F 63.3 °F 30.08 in Calm   0.7 mph 71 % 0.00 in
14:27 73.8 °F 63.8 °F 30.08 in Calm     71 % 0.00 in
14:32 74.1 °F 64.2 °F 30.09 in Calm   1.8 mph 71 % 0.00 in
14:37 74.3 °F 64.3 °F 30.09 in Calm   1.8 mph 71 % 0.00 in
14:42 74.1 °F 63.3 °F 30.09 in Calm     69 % 0.00 in
14:47 73.9 °F 63.6 °F 30.09 in Calm   2.2 mph 70 % 0.00 in
14:52 73.9 °F 63.2 °F 30.09 in Calm   2.2 mph 69 % 0.00 in
14:57 73.9 °F 63.2 °F 30.09 in Calm     69 % 0.00 in
15:02 74.1 °F 63.8 °F 30.09 in Calm     70 % 0.00 in
15:07 74.3 °F 64.0 °F 30.09 in Calm     70 % 0.00 in
15:12 74.5 °F 64.5 °F 30.09 in Calm   1.8 mph 71 % 0.00 in
15:17 74.5 °F 64.1 °F 30.09 in Calm   1.8 mph 70 % 0.00 in
15:22 74.3 °F 64.3 °F 30.09 in Calm     71 % 0.00 in
15:23 74.5 °F 64.5 °F 30.09 in Calm     71 % 0.00 in
15:28 74.5 °F 64.5 °F 30.09 in Calm     71 % 0.00 in
15:33 74.5 °F 64.5 °F 30.09 in Calm     71 % 0.00 in
15:38 74.8 °F 64.8 °F 30.09 in Calm   2.0 mph 71 % 0.00 in
15:43 75.4 °F 64.9 °F 30.10 in Calm   2.0 mph 70 % 0.00 in
15:48 75.0 °F 64.6 °F 30.10 in Calm     70 % 0.00 in
15:53 75.0 °F 64.1 °F 30.09 in Calm     69 % 0.00 in
15:58 75.0 °F 64.1 °F 30.09 in Calm     69 % 0.00 in
16:03 75.0 °F 63.7 °F 30.09 in Calm     68 % 0.00 in
16:08 75.2 °F 63.9 °F 30.09 in Calm     68 % 0.00 in
16:13 75.6 °F 64.7 °F 30.09 in Calm   1.8 mph 69 % 0.00 in
16:18 75.7 °F 64.4 °F 30.09 in Calm   1.8 mph 68 % 0.00 in
16:23 75.7 °F 64.4 °F 30.09 in Calm     68 % 0.00 in
16:28 76.1 °F 64.8 °F 30.08 in WNW 3.1 mph 3.1 mph 68 % 0.00 in
16:33 76.3 °F 64.9 °F 30.09 in Calm   3.1 mph 68 % 0.00 in
16:38 76.6 °F 64.8 °F 30.09 in Calm   2.0 mph 67 % 0.00 in
16:43 76.8 °F 65.0 °F 30.09 in Calm   2.0 mph 67 % 0.00 in
16:48 76.5 °F 64.4 °F 30.10 in Calm     66 % 0.00 in
16:53 76.3 °F 64.1 °F 30.10 in Calm     66 % 0.00 in
16:58 75.9 °F 63.7 °F 30.09 in Calm   2.2 mph 66 % 0.00 in
17:03 75.9 °F 63.7 °F 30.10 in Calm   2.5 mph 66 % 0.00 in
17:08 75.9 °F 63.9 °F 30.10 in Calm   2.5 mph 66 % 0.00 in
17:13 76.1 °F 63.9 °F 30.10 in Calm   1.6 mph 66 % 0.00 in
17:18 76.1 °F 63.9 °F 30.10 in Calm   1.6 mph 66 % 0.00 in
17:23 75.9 °F 63.7 °F 30.09 in Calm   3.1 mph 67 % 0.00 in
17:28 76.3 °F 64.1 °F 30.10 in Calm   3.1 mph 66 % 0.00 in
17:33 76.3 °F 64.1 °F 30.10 in Calm     66 % 0.00 in
17:38 76.1 °F 63.9 °F 30.10 in Calm   1.8 mph 66 % 0.00 in
17:43 76.1 °F 63.9 °F 30.10 in Calm   1.8 mph 66 % 0.00 in
17:48 76.1 °F 63.9 °F 30.10 in Calm     66 % 0.00 in
17:53 75.9 °F 63.3 °F 30.10 in Calm     65 % 0.00 in
17:58 75.7 °F 63.1 °F 30.10 in Calm     65 % 0.00 in
18:03 75.6 °F 62.9 °F 30.10 in Calm   2.5 mph 65 % 0.00 in
18:08 75.4 °F 62.8 °F 30.10 in Calm   2.5 mph 65 % 0.00 in
18:13 75.4 °F 63.6 °F 30.10 in Calm     67 % 0.00 in
18:18 75.0 °F 62.9 °F 30.10 in Calm     66 % 0.00 in
18:23 74.8 °F 62.7 °F 30.10 in Calm     66 % 0.00 in
Burke, Virginia, USA
Compliments of Weather Underground - 2.75 mb